Time;durP1;ratioP1;P1;durP2;ratioP2;P2;SDS_P1;SDS_P2;PMS_P1;PMS_P2;Temp;Humidity;BMP_temperature;BMP_pressure;BME280_temperature;BME280_humidity;BME280_pressure;Samples;Min_cycle;Max_cycle;Signal;HPM_P1;HPM_P2
2022/11/26 00:01:42;;;;;;;10.70;2.40;;;;;;;9.34;100.00;100821.84;5029677;28;20045;-80
2022/11/26 00:04:09;;;;;;;12.93;2.67;;;;;;;9.12;100.00;100794.63;5030923;28;20095;-81
2022/11/26 00:06:39;;;;;;;8.82;2.30;;;;;;;9.45;100.00;100843.28;5028871;28;20521;-82
2022/11/26 00:09:13;;;;;;;12.63;2.53;;;;;;;9.24;100.00;100840.44;5031232;28;20557;-80
2022/11/26 00:11:41;;;;;;;20.08;2.95;;;;;;;9.36;100.00;100836.56;5021406;28;20099;-81
2022/11/26 00:14:16;;;;;;;7.63;2.28;;;;;;;9.32;100.00;100824.50;5024797;28;20111;-81
2022/11/26 00:16:43;;;;;;;8.13;1.98;;;;;;;9.51;100.00;100845.72;5022730;28;20052;-81
2022/11/26 00:19:10;;;;;;;7.88;2.10;;;;;;;9.38;100.00;100850.44;5031119;28;20429;-81
2022/11/26 00:21:39;;;;;;;7.82;2.05;;;;;;;9.53;100.00;100851.75;5016650;28;20049;-82
2022/11/26 00:24:22;;;;;;;10.50;2.20;;;;;;;9.29;100.00;100848.13;5023103;28;20103;-81
2022/11/26 00:26:50;;;;;;;8.82;2.90;;;;;;;9.36;100.00;100854.03;5030886;28;20057;-81
2022/11/26 00:29:16;;;;;;;13.77;3.17;;;;;;;9.07;100.00;100814.81;5033323;28;20115;-81
2022/11/26 00:31:43;;;;;;;16.52;4.45;;;;;;;9.28;100.00;100860.34;5035769;28;21633;-81
2022/11/26 00:34:10;;;;;;;17.63;4.43;;;;;;;9.42;100.00;100866.88;5034861;28;20049;-80
2022/11/26 00:36:37;;;;;;;14.25;4.88;;;;;;;9.33;100.00;100844.53;5036215;28;20103;-81
2022/11/26 00:39:16;;;;;;;14.93;5.18;;;;;;;9.44;100.00;100850.28;5034936;28;20049;-82
2022/11/26 00:41:48;;;;;;;14.52;3.75;;;;;;;9.58;100.00;100854.19;5036069;28;20048;-81
2022/11/26 00:44:24;;;;;;;13.60;3.50;;;;;;;9.28;100.00;100867.31;5033329;28;20490;-81
2022/11/26 00:46:51;;;;;;;16.15;3.35;;;;;;;9.46;100.00;100876.38;5033920;28;20479;-81
2022/11/26 00:49:19;;;;;;;20.42;4.18;;;;;;;9.53;100.00;100867.44;5038909;28;20056;-80
2022/11/26 00:51:46;;;;;;;14.93;4.20;;;;;;;9.49;100.00;100850.09;5035065;28;20741;-81
2022/11/26 00:54:17;;;;;;;11.82;3.20;;;;;;;9.56;100.00;100871.69;5034547;28;20100;-80
2022/11/26 00:56:45;;;;;;;12.38;2.97;;;;;;;9.59;100.00;100862.00;5036237;28;20045;-82
2022/11/26 00:59:22;;;;;;;14.80;3.55;;;;;;;9.56;100.00;100864.72;5035253;28;20057;-80
2022/11/26 01:01:49;;;;;;;11.32;2.85;;;;;;;9.54;100.00;100869.13;5042691;28;20537;-81
2022/11/26 01:04:15;;;;;;;15.45;3.33;;;;;;;9.57;100.00;100845.50;5036829;28;20045;-80
2022/11/26 01:06:43;;;;;;;11.35;3.10;;;;;;;9.49;100.00;100861.44;5036907;28;20049;-80
2022/11/26 01:09:16;;;;;;;14.80;3.38;;;;;;;9.70;100.00;100864.25;5034493;28;20576;-82
2022/11/26 01:11:43;;;;;;;16.88;4.55;;;;;;;9.34;100.00;100832.31;5035648;28;20499;-82
2022/11/26 01:14:18;;;;;;;23.40;4.75;;;;;;;9.39;100.00;100838.25;5035590;28;20438;-81
2022/11/26 01:16:46;;;;;;;23.25;4.28;;;;;;;9.55;100.00;100852.53;5036835;28;20057;-80
2022/11/26 01:19:15;;;;;;;20.02;3.80;;;;;;;9.49;100.00;100834.41;5035591;28;20136;-80
2022/11/26 01:21:42;;;;;;;13.70;3.53;;;;;;;9.49;100.00;100878.84;5043076;28;20049;-80
2022/11/26 01:24:09;;;;;;;13.55;2.97;;;;;;;9.40;100.00;100845.16;5037364;28;20095;-80
2022/11/26 01:26:41;;;;;;;11.27;3.20;;;;;;;9.56;100.00;100866.47;5036569;28;20045;-81
2022/11/26 01:29:16;;;;;;;15.10;3.63;;;;;;;9.39;100.00;100874.84;5036140;28;20084;-82
2022/11/26 01:31:43;;;;;;;16.48;2.95;;;;;;;9.60;100.00;100866.31;5030439;28;20053;-81
2022/11/26 01:34:10;;;;;;;15.90;3.88;;;;;;;9.49;100.00;100861.44;5037295;28;20079;-81
2022/11/26 01:36:39;;;;;;;22.50;4.57;;;;;;;9.19;100.00;100850.16;5033873;28;20465;-81
2022/11/26 01:39:17;;;;;;;16.98;3.97;;;;;;;9.22;100.00;100868.34;5036227;28;20049;-81
2022/11/26 01:41:56;;;;;;;25.33;5.13;;;;;;;9.32;100.00;100882.84;5038326;28;20052;-81
2022/11/26 01:44:29;;;;;;;18.98;4.72;;;;;;;9.51;100.00;100869.22;5033917;28;20111;-81
2022/11/26 01:46:57;;;;;;;18.83;3.38;;;;;;;9.63;100.00;100875.81;5026614;28;20061;-81
2022/11/26 01:49:25;;;;;;;17.08;3.50;;;;;;;9.76;100.00;100882.38;5033523;28;20483;-81
2022/11/26 01:52:16;;;;;;;24.92;4.40;;;;;;;9.55;100.00;100883.91;5033498;28;20463;-81
2022/11/26 01:54:43;;;;;;;23.67;4.05;;;;;;;9.42;100.00;100846.84;5037353;28;20057;-81
2022/11/26 01:57:18;;;;;;;23.98;4.90;;;;;;;9.19;100.00;100841.44;5031621;28;20115;-81
2022/11/26 01:59:50;;;;;;;15.43;3.28;;;;;;;9.63;100.00;100887.16;5033830;28;20053;-81
2022/11/26 02:02:18;;;;;;;17.83;3.53;;;;;;;9.57;100.00;100876.03;5029522;28;20459;-81
2022/11/26 02:04:55;;;;;;;16.85;3.35;;;;;;;9.85;100.00;100884.69;5019586;28;20167;-82
2022/11/26 02:07:22;;;;;;;15.43;3.03;;;;;;;9.70;100.00;100887.78;5024796;28;20081;-80
2022/11/26 02:09:49;;;;;;;15.90;4.68;;;;;;;9.76;100.00;100879.78;5030471;28;20058;-81
2022/11/26 02:12:16;;;;;;;25.35;4.60;;;;;;;9.68;100.00;100885.25;5041360;28;20042;-81
2022/11/26 02:14:44;;;;;;;22.42;4.07;;;;;;;9.61;100.00;100865.41;5022208;28;20049;-81
2022/11/26 02:18:00;;;;;;;13.27;3.70;;;;;;;9.68;100.00;100887.00;5030439;28;20104;-81
2022/11/26 02:20:45;;;;;;;14.25;3.83;;;;;;;9.70;100.00;100893.03;5002208;28;20085;-81
2022/11/26 02:23:50;;;;;;;11.80;3.15;;;;;;;9.94;100.00;100890.56;5018407;28;20123;-81
2022/11/26 02:27:02;;;;;;;15.25;2.83;;;;;;;9.85;100.00;100883.84;5032043;28;20054;-81
2022/11/26 02:30:02;;;;;;;20.88;4.97;;;;;;;9.86;100.00;100882.94;5013814;28;20658;-81
2022/11/26 02:32:57;;;;;;;20.10;3.97;;;;;;;9.72;100.00;100877.28;5032084;28;20053;-81
2022/11/26 02:35:32;;;;;;;14.95;3.22;;;;;;;9.73;100.00;100879.00;5033385;28;20057;-82
2022/11/26 02:38:08;;;;;;;15.93;3.17;;;;;;;9.76;100.00;100881.53;5031481;28;20042;-82
2022/11/26 02:40:35;;;;;;;16.70;4.07;;;;;;;9.70;100.00;100869.50;5032376;28;20183;-81
2022/11/26 02:43:01;;;;;;;17.55;3.85;;;;;;;9.72;100.00;100874.69;5032545;28;20038;-81
2022/11/26 02:45:39;;;;;;;17.48;4.05;;;;;;;9.64;100.00;100852.25;5033455;28;20053;-82
2022/11/26 02:48:11;;;;;;;12.50;3.22;;;;;;;9.57;100.00;100869.03;5031470;28;20045;-82
2022/11/26 02:50:43;;;;;;;22.13;4.75;;;;;;;9.49;100.00;100884.09;5033228;28;20049;-82
2022/11/26 02:53:14;;;;;;;19.42;4.35;;;;;;;9.61;100.00;100875.00;5034888;28;20037;-82
2022/11/26 02:55:46;;;;;;;13.07;4.15;;;;;;;9.67;100.00;100864.38;5035749;28;20106;-81
2022/11/26 02:58:13;;;;;;;15.18;3.55;;;;;;;9.63;100.00;100870.59;5029476;28;20518;-82
2022/11/26 03:00:41;;;;;;;13.10;3.67;;;;;;;9.64;100.00;100874.94;5031843;28;20049;-82
2022/11/26 03:03:28;;;;;;;20.83;4.18;;;;;;;9.69;100.00;100870.41;5045565;28;20490;-82
2022/11/26 03:06:00;;;;;;;18.58;3.85;;;;;;;9.64;100.00;100861.84;5034137;28;20103;-82
2022/11/26 03:08:28;;;;;;;13.82;3.42;;;;;;;9.54;100.00;100847.34;5031945;28;20529;-82
2022/11/26 03:10:54;;;;;;;12.45;2.65;;;;;;;9.76;100.00;100876.31;5032177;28;20116;-82
2022/11/26 03:13:21;;;;;;;17.27;3.30;;;;;;;9.57;100.00;100868.19;5030806;28;20087;-82
2022/11/26 03:15:48;;;;;;;19.50;3.55;;;;;;;9.68;100.00;100876.53;5018539;28;20053;-82
2022/11/26 03:18:15;;;;;;;23.00;4.15;;;;;;;9.65;100.00;100885.34;5032234;28;20099;-82
2022/11/26 03:20:42;;;;;;;12.63;3.42;;;;;;;9.56;100.00;100861.22;5036491;28;20048;-82
2022/11/26 03:23:09;;;;;;;15.95;3.92;;;;;;;9.67;100.00;100886.16;5031725;28;20446;-81
2022/11/26 03:25:35;;;;;;;17.85;4.43;;;;;;;9.74;100.00;100899.00;5028369;28;20692;-81
2022/11/26 03:28:03;;;;;;;23.20;4.07;;;;;;;9.73;100.00;100886.84;5038377;28;20081;-82
2022/11/26 03:30:30;;;;;;;17.70;3.38;;;;;;;9.63;100.00;100886.28;5034612;28;20422;-82
2022/11/26 03:32:57;;;;;;;24.38;5.10;;;;;;;9.58;100.00;100890.78;5030299;28;20091;-82
2022/11/26 03:35:24;;;;;;;14.20;3.78;;;;;;;9.50;100.00;100898.88;5031205;28;20107;-81
2022/11/26 03:37:50;;;;;;;17.85;4.53;;;;;;;9.62;100.00;100903.72;5029003;28;20123;-82
2022/11/26 03:40:18;;;;;;;15.80;3.47;;;;;;;9.59;100.00;100892.50;5030959;28;20053;-83
2022/11/26 03:42:45;;;;;;;14.02;3.70;;;;;;;9.71;100.00;100888.66;5033561;28;20168;-82
2022/11/26 03:45:12;;;;;;;14.30;4.47;;;;;;;9.58;100.00;100881.22;5030873;28;20107;-82
2022/11/26 03:47:38;;;;;;;13.02;3.47;;;;;;;9.61;100.00;100890.69;5029528;28;20104;-82
2022/11/26 03:50:06;;;;;;;11.95;3.20;;;;;;;9.72;100.00;100891.25;5033831;28;20091;-83
2022/11/26 03:52:33;;;;;;;14.48;3.30;;;;;;;9.40;100.00;100866.06;5036644;28;20049;-81
2022/11/26 03:54:59;;;;;;;14.80;3.58;;;;;;;9.67;100.00;100896.59;5030652;28;20049;-82
2022/11/26 03:57:26;;;;;;;12.88;3.45;;;;;;;9.59;100.00;100884.66;5030639;28;20053;-81
2022/11/26 03:59:53;;;;;;;12.43;3.40;;;;;;;9.59;100.00;100900.34;5031412;28;20091;-82
2022/11/26 04:02:20;;;;;;;17.75;4.15;;;;;;;9.68;100.00;100895.72;5030679;28;20054;-81
2022/11/26 04:04:46;;;;;;;15.68;3.92;;;;;;;9.69;100.00;100884.34;5030944;28;20046;-83
2022/11/26 04:07:13;;;;;;;18.88;3.72;;;;;;;9.63;100.00;100888.88;5029325;28;20091;-82
2022/11/26 04:09:40;;;;;;;13.82;3.78;;;;;;;9.47;100.00;100852.78;5031677;28;20073;-82
2022/11/26 04:12:07;;;;;;;19.92;4.15;;;;;;;9.75;100.00;100890.28;5030275;28;20116;-82
2022/11/26 04:14:34;;;;;;;15.07;3.83;;;;;;;9.66;100.00;100884.41;5028283;28;20103;-82
2022/11/26 04:17:00;;;;;;;13.02;3.28;;;;;;;9.74;100.00;100876.34;5030782;28;20087;-82
2022/11/26 04:19:27;;;;;;;16.92;3.50;;;;;;;9.62;100.00;100853.22;5030808;28;20053;-82
2022/11/26 04:21:54;;;;;;;12.73;3.47;;;;;;;9.82;100.00;100879.56;5030689;28;20046;-82
2022/11/26 04:24:20;;;;;;;13.82;3.60;;;;;;;9.86;100.00;100880.31;5031295;28;20042;-83
2022/11/26 04:26:47;;;;;;;16.30;3.25;;;;;;;9.77;100.00;100868.38;5036383;28;20122;-82
2022/11/26 04:29:14;;;;;;;15.18;3.22;;;;;;;9.78;100.00;100882.34;5031042;28;20046;-82
2022/11/26 04:31:40;;;;;;;12.98;3.13;;;;;;;9.91;100.00;100888.88;5030193;28;20471;-83
2022/11/26 04:34:07;;;;;;;16.35;3.05;;;;;;;9.83;100.00;100880.44;5031298;28;20132;-82
2022/11/26 04:36:34;;;;;;;13.30;2.92;;;;;;;9.85;100.00;100881.25;5031264;28;20045;-83
2022/11/26 04:39:00;;;;;;;14.52;3.17;;;;;;;9.95;100.00;100894.84;5030047;28;20049;-82
2022/11/26 04:41:27;;;;;;;13.00;2.95;;;;;;;9.88;100.00;100889.00;5029406;28;20061;-82
2022/11/26 04:43:54;;;;;;;9.20;2.50;;;;;;;9.88;100.00;100896.84;5031448;28;20049;-82
2022/11/26 04:46:21;;;;;;;9.90;3.35;;;;;;;9.72;100.00;100878.16;5017400;28;20108;-82
2022/11/26 04:48:47;;;;;;;14.80;3.40;;;;;;;9.73;100.00;100886.84;5031339;28;20045;-82
2022/11/26 04:51:14;;;;;;;10.32;2.95;;;;;;;9.84;100.00;100906.53;5030038;28;20049;-82
2022/11/26 04:53:41;;;;;;;12.82;2.88;;;;;;;9.83;100.00;100894.34;5028848;28;20041;-82
2022/11/26 04:56:08;;;;;;;18.05;4.30;;;;;;;9.82;100.00;100890.03;5030625;28;20421;-82
2022/11/26 04:58:34;;;;;;;23.45;4.47;;;;;;;9.79;100.00;100902.34;5030983;28;20095;-82
2022/11/26 05:01:01;;;;;;;17.23;3.97;;;;;;;9.74;100.00;100881.59;5030053;28;20049;-82
2022/11/26 05:03:28;;;;;;;16.35;3.33;;;;;;;9.86;100.00;100883.81;5029464;28;20167;-82
2022/11/26 05:05:55;;;;;;;15.98;3.47;;;;;;;9.84;100.00;100867.31;5031394;28;20049;-82
2022/11/26 05:08:22;;;;;;;20.80;3.42;;;;;;;9.80;100.00;100889.22;5031390;28;20049;-82
2022/11/26 05:10:53;;;;;;;15.20;3.60;;;;;;;9.95;100.00;100913.16;5031270;28;20053;-83
2022/11/26 05:13:21;;;;;;;18.08;4.32;;;;;;;10.02;100.00;100910.31;5017391;28;20082;-83
2022/11/26 05:15:47;;;;;;;19.42;4.15;;;;;;;10.04;100.00;100912.91;5031022;28;20096;-83
2022/11/26 05:18:15;;;;;;;17.02;4.20;;;;;;;10.17;100.00;100900.25;5034536;28;20495;-82
2022/11/26 05:20:41;;;;;;;16.98;4.95;;;;;;;10.04;100.00;100900.66;5046361;28;20387;-82
2022/11/26 05:23:08;;;;;;;15.32;3.13;;;;;;;10.15;100.00;100905.53;5032321;28;20465;-82
2022/11/26 05:25:35;;;;;;;16.20;4.32;;;;;;;9.96;100.00;100894.81;5033838;28;20434;-83
2022/11/26 05:28:01;;;;;;;13.00;3.35;;;;;;;9.82;100.00;100871.72;5025904;28;20049;-82
2022/11/26 05:30:28;;;;;;;18.42;4.10;;;;;;;9.87;100.00;100892.50;5029811;28;20110;-82
2022/11/26 05:32:55;;;;;;;12.77;3.15;;;;;;;9.85;100.00;100903.00;5033476;28;20107;-82
2022/11/26 05:35:21;;;;;;;12.93;3.22;;;;;;;9.87;100.00;100918.66;5024305;28;20054;-82
2022/11/26 05:37:48;;;;;;;12.82;3.58;;;;;;;9.80;100.00;100914.53;5032828;28;20049;-82
2022/11/26 05:40:15;;;;;;;15.57;3.50;;;;;;;9.79;100.00;100902.34;5027859;28;20095;-82
2022/11/26 05:42:42;;;;;;;14.00;4.07;;;;;;;9.79;100.00;100911.06;5034162;28;20091;-83
2022/11/26 05:45:09;;;;;;;19.42;2.95;;;;;;;9.67;100.00;100886.16;5034246;28;20407;-82
2022/11/26 05:47:36;;;;;;;13.95;3.08;;;;;;;9.89;100.00;100909.84;5033477;28;20054;-82
2022/11/26 05:50:03;;;;;;;16.33;3.95;;;;;;;9.84;100.00;100922.25;5032920;28;20053;-82
2022/11/26 05:52:30;;;;;;;11.70;2.60;;;;;;;10.07;100.00;100924.13;5032487;28;20045;-81
2022/11/26 05:54:57;;;;;;;14.43;3.22;;;;;;;10.23;100.00;100927.09;5032665;28;20437;-82
2022/11/26 05:57:24;;;;;;;10.63;2.70;;;;;;;10.13;100.00;100924.78;5032156;28;20104;-83
2022/11/26 05:59:50;;;;;;;12.77;2.92;;;;;;;9.78;100.00;100892.81;5032441;28;20053;-82
2022/11/26 06:02:17;;;;;;;10.73;3.00;;;;;;;10.01;100.00;100918.22;5028954;28;20042;-82
2022/11/26 06:04:44;;;;;;;17.42;3.50;;;;;;;9.98;100.00;100916.53;5019066;28;20645;-82
2022/11/26 06:07:11;;;;;;;15.20;3.30;;;;;;;9.85;100.00;100910.84;5033115;28;20133;-82
2022/11/26 06:09:38;;;;;;;12.93;3.22;;;;;;;9.80;100.00;100891.84;5032652;28;20080;-82
2022/11/26 06:12:05;;;;;;;16.40;3.38;;;;;;;9.87;100.00;100909.03;5033816;28;20045;-82
2022/11/26 06:14:32;;;;;;;12.05;2.55;;;;;;;9.85;100.00;100913.47;5033095;28;20057;-82
2022/11/26 06:16:59;;;;;;;13.52;2.58;;;;;;;9.84;100.00;100911.78;5031865;28;20057;-82
2022/11/26 06:19:26;;;;;;;9.10;2.53;;;;;;;9.66;100.00;100887.03;5036394;28;20075;-82
2022/11/26 06:21:52;;;;;;;11.13;2.65;;;;;;;9.78;100.00;100905.88;5038610;28;20049;-82
2022/11/26 06:24:19;;;;;;;14.38;3.40;;;;;;;9.54;100.00;100887.41;5025728;28;20042;-82
2022/11/26 06:26:47;;;;;;;14.98;2.55;;;;;;;9.47;100.00;100888.50;5026991;28;20049;-82
2022/11/26 06:29:15;;;;;;;10.85;3.67;;;;;;;9.55;100.00;100907.44;5033294;28;20045;-82
2022/11/26 06:31:42;;;;;;;16.25;3.05;;;;;;;9.56;100.00;100895.22;5040622;28;20071;-82
2022/11/26 06:34:09;;;;;;;11.38;3.80;;;;;;;9.56;100.00;100883.03;5029796;28;20048;-82
2022/11/26 06:36:35;;;;;;;9.23;2.42;;;;;;;9.63;100.00;100884.53;5025058;28;20041;-82
2022/11/26 06:39:02;;;;;;;12.30;3.20;;;;;;;9.50;100.00;100884.03;5023470;28;20054;-82
2022/11/26 06:41:29;;;;;;;9.05;2.47;;;;;;;9.37;100.00;100858.34;5033323;28;20052;-82
2022/11/26 06:43:58;;;;;;;8.55;2.50;;;;;;;9.40;100.00;100880.03;5032953;28;20049;-81
2022/11/26 06:46:25;;;;;;;8.43;2.05;;;;;;;9.44;100.00;100886.84;5024376;28;20107;-82
2022/11/26 06:48:54;;;;;;;10.68;2.65;;;;;;;9.45;100.00;100887.69;5020577;28;20061;-82
2022/11/26 06:51:26;;;;;;;14.38;3.40;;;;;;;9.33;100.00;100862.81;5017369;28;20061;-82
2022/11/26 06:53:53;;;;;;;10.93;2.20;;;;;;;9.54;100.00;100869.13;5030539;28;20496;-83
2022/11/26 06:56:20;;;;;;;12.88;2.78;;;;;;;9.49;100.00;100877.13;5029771;28;20041;-82
2022/11/26 06:58:47;;;;;;;19.15;3.95;;;;;;;9.49;100.00;100857.94;5031030;28;20119;-83
2022/11/26 07:01:22;;;;;;;18.45;3.10;;;;;;;9.53;100.00;100848.28;5030893;28;20045;-82
2022/11/26 07:03:50;;;;;;;10.98;2.83;;;;;;;9.70;100.00;100861.66;5032363;28;20068;-83
2022/11/26 07:06:19;;;;;;;20.10;5.45;;;;;;;9.62;100.00;100868.91;5032094;28;20092;-82
2022/11/26 07:08:47;;;;;;;11.02;3.22;;;;;;;9.70;100.00;100861.66;5031995;28;20438;-82
2022/11/26 07:11:15;;;;;;;11.60;3.25;;;;;;;9.49;100.00;100863.19;5039931;28;20384;-82
2022/11/26 07:13:42;;;;;;;12.60;2.78;;;;;;;9.47;100.00;100871.09;5033312;28;20096;-82
2022/11/26 07:16:09;;;;;;;10.32;2.40;;;;;;;9.34;100.00;100834.91;5032882;28;20497;-82
2022/11/26 07:18:37;;;;;;;16.25;4.65;;;;;;;9.67;100.00;100870.47;5032186;28;20648;-82
2022/11/26 07:21:10;;;;;;;14.73;2.72;;;;;;;9.71;100.00;100863.38;5012713;28;20116;-81
2022/11/26 07:23:37;;;;;;;14.43;3.20;;;;;;;9.82;100.00;100858.63;5026078;28;20057;-81
2022/11/26 07:26:05;;;;;;;13.20;2.97;;;;;;;9.91;100.00;100849.63;5022829;28;20502;-81
2022/11/26 07:28:33;;;;;;;25.02;4.22;;;;;;;9.82;100.00;100852.56;5026879;28;20634;-81
2022/11/26 07:31:01;;;;;;;14.38;3.00;;;;;;;9.96;100.00;100841.66;5029396;28;20053;-82
2022/11/26 07:33:29;;;;;;;14.85;3.00;;;;;;;10.19;100.00;100849.56;5030808;28;20487;-82
2022/11/26 07:36:05;;;;;;;17.42;3.35;;;;;;;10.25;100.00;100848.50;5029750;28;20529;-82
2022/11/26 07:38:33;;;;;;;16.20;3.22;;;;;;;10.26;100.00;100842.38;5022548;28;20046;-81
2022/11/26 07:41:05;;;;;;;21.80;3.53;;;;;;;10.42;100.00;100842.72;5030207;28;20049;-82
2022/11/26 07:43:40;;;;;;;14.98;3.17;;;;;;;10.45;100.00;100845.25;5027859;28;20681;-83
2022/11/26 07:46:10;;;;;;;14.38;2.70;;;;;;;10.36;100.00;100846.41;5017166;28;20049;-82
2022/11/26 07:48:39;;;;;;;20.33;4.40;;;;;;;10.29;100.00;100836.16;5030330;28;20045;-82
2022/11/26 07:51:07;;;;;;;15.65;4.25;;;;;;;10.33;100.00;100835.19;5029015;28;20056;-82
2022/11/26 07:53:35;;;;;;;19.02;3.22;;;;;;;10.53;100.00;100840.56;5018238;28;20045;-83
2022/11/26 07:56:05;;;;;;;19.02;3.30;;;;;;;10.33;100.00;100822.13;5030453;28;20048;-82
2022/11/26 07:58:32;;;;;;;17.73;3.95;;;;;;;10.32;100.00;100797.69;5019847;28;20499;-82
2022/11/26 08:01:10;;;;;;;18.52;3.70;;;;;;;10.50;100.00;100839.81;5028332;28;20049;-82
2022/11/26 08:03:39;;;;;;;14.48;2.67;;;;;;;10.53;100.00;100839.72;5025639;28;20054;-82
2022/11/26 08:06:07;;;;;;;23.10;3.97;;;;;;;10.52;100.00;100827.56;5019063;28;20045;-81
2022/11/26 08:08:35;;;;;;;17.85;3.50;;;;;;;10.49;100.00;100831.13;5029495;28;20443;-84
2022/11/26 08:11:03;;;;;;;17.30;3.28;;;;;;;10.68;100.00;100828.69;5028355;28;20105;-82
2022/11/26 08:13:30;;;;;;;20.67;4.47;;;;;;;10.47;100.00;100803.31;5027564;28;20099;-83
2022/11/26 08:15:56;;;;;;;21.27;3.95;;;;;;;10.61;100.00;100801.88;5028903;28;20056;-81
2022/11/26 08:18:23;;;;;;;14.23;3.50;;;;;;;10.73;100.00;100824.16;5031007;28;20450;-81
2022/11/26 08:20:54;;;;;;;17.20;3.10;;;;;;;10.59;100.00;100808.94;5030180;28;20435;-81
2022/11/26 08:23:21;;;;;;;17.30;3.42;;;;;;;10.51;100.00;100781.34;5022336;28;20053;-83
2022/11/26 08:25:49;;;;;;;16.05;2.92;;;;;;;10.59;100.00;100801.09;5027826;28;20050;-82
2022/11/26 08:28:35;;;;;;;11.48;3.40;;;;;;;10.73;100.00;100818.91;5018338;28;20061;-82
2022/11/26 08:31:04;;;;;;;19.10;3.20;;;;;;;10.70;100.00;100813.78;5026642;28;20384;-82
2022/11/26 08:33:32;;;;;;;16.45;3.00;;;;;;;10.67;100.00;100786.84;5024862;28;20041;-82
2022/11/26 08:36:00;;;;;;;32.92;4.82;;;;;;;10.76;100.00;100787.34;5026232;28;20076;-81
2022/11/26 08:38:35;;;;;;;28.65;4.20;;;;;;;10.95;100.00;100800.63;5032803;28;20049;-82
2022/11/26 08:41:04;;;;;;;25.35;5.90;;;;;;;10.78;100.00;100789.91;5022418;28;20053;-82
2022/11/26 08:43:34;;;;;;;41.72;6.85;;;;;;;11.06;100.00;100800.19;5025498;28;20480;-82
2022/11/26 08:46:21;;;;;;;27.48;6.10;;;;;;;11.01;100.00;100770.69;5028648;28;20439;-82
2022/11/26 08:48:48;;;;;;;35.25;6.00;;;;;;;11.01;100.00;100787.31;5030012;28;20053;-82
2022/11/26 08:51:16;;;;;;;29.35;5.90;;;;;;;10.94;100.00;100777.97;5033967;28;20057;-83
2022/11/26 08:53:43;;;;;;;29.55;5.22;;;;;;;11.31;100.00;100820.22;5020542;28;20045;-84
2022/11/26 08:56:11;;;;;;;30.58;5.95;;;;;;;11.12;100.00;100759.81;5029229;28;20511;-83
2022/11/26 08:58:41;;;;;;;32.53;6.05;;;;;;;11.29;100.00;100812.41;5026097;28;20065;-84
2022/11/26 09:01:09;;;;;;;28.33;5.05;;;;;;;11.34;100.00;100813.09;5028234;28;20057;-84
2022/11/26 09:03:37;;;;;;;29.50;5.65;;;;;;;11.35;100.00;100822.66;5027812;28;20073;-83
2022/11/26 09:06:05;;;;;;;29.50;6.68;;;;;;;11.39;100.00;100811.13;5022973;28;20111;-84
2022/11/26 09:08:43;;;;;;;35.13;6.85;;;;;;;11.32;100.00;100798.34;5031746;28;20072;-84
2022/11/26 09:11:11;;;;;;;45.03;5.95;;;;;;;11.38;100.00;100801.59;5025609;28;20125;-83
2022/11/26 09:13:38;;;;;;;35.03;5.88;;;;;;;11.09;100.00;100773.88;5034538;28;20042;-83
2022/11/26 09:16:04;;;;;;;23.48;6.07;;;;;;;11.39;100.00;100818.16;5028289;28;20041;-83
2022/11/26 09:18:31;;;;;;;21.60;5.60;;;;;;;11.46;100.00;100826.63;5039544;28;20136;-82
2022/11/26 09:21:03;;;;;;;23.50;5.25;;;;;;;11.39;100.00;100799.81;5024670;28;20049;-82
2022/11/26 09:23:30;;;;;;;37.42;5.50;;;;;;;11.29;100.00;100812.41;5022784;28;20045;-82
2022/11/26 09:25:56;;;;;;;21.80;4.30;;;;;;;11.16;100.00;100767.50;5026741;28;20133;-83
2022/11/26 09:28:23;;;;;;;31.25;5.43;;;;;;;11.58;100.00;100823.53;5032123;28;20045;-82
2022/11/26 09:30:56;;;;;;;26.38;5.28;;;;;;;11.57;100.00;100819.19;5030229;28;20053;-84
2022/11/26 09:33:23;;;;;;;21.45;4.90;;;;;;;11.64;100.00;100806.69;5028092;28;20057;-84
2022/11/26 09:35:50;;;;;;;24.52;5.68;;;;;;;11.43;100.00;100790.03;5026102;28;20479;-84
2022/11/26 09:38:17;;;;;;;34.83;6.72;;;;;;;11.54;100.00;100800.94;5027211;28;20056;-84
2022/11/26 09:41:16;;;;;;;24.10;4.50;;;;;;;11.82;100.00;100815.56;5020672;28;20559;-84
2022/11/26 09:44:04;;;;;;;21.27;4.28;;;;;;;11.91;100.00;100818.66;5001313;28;20105;-84
2022/11/26 09:46:42;;;;;;;17.00;4.35;;;;;;;11.89;100.00;100822.25;5030949;28;20482;-83
2022/11/26 09:49:35;;;;;;;21.55;4.55;;;;;;;11.92;100.00;100814.28;5029498;28;20053;-84
2022/11/26 09:52:05;;;;;;;27.30;4.38;;;;;;;11.62;100.00;100791.00;5028519;28;20099;-84
2022/11/26 09:54:32;;;;;;;29.98;5.45;;;;;;;11.89;100.00;100809.97;5032522;28;20934;-83
2022/11/26 09:57:12;;;;;;;19.75;4.00;;;;;;;11.68;100.00;100795.97;5035741;28;20054;-84
2022/11/26 09:59:40;;;;;;;22.75;4.75;;;;;;;11.32;100.00;100754.63;5015470;28;20046;-84
2022/11/26 10:02:10;;;;;;;24.20;4.32;;;;;;;11.80;100.00;100823.50;5021172;28;20095;-84
2022/11/26 10:04:39;;;;;;;22.25;4.80;;;;;;;11.64;100.00;100776.06;5024566;28;20050;-83
2022/11/26 10:07:37;;;;;;;22.98;4.20;;;;;;;11.77;100.00;100816.63;5027771;28;20546;-83
2022/11/26 10:10:04;;;;;;;24.10;5.47;;;;;;;11.88;100.00;100813.53;5033336;28;20076;-84
2022/11/26 10:12:59;;;;;;;28.58;6.22;;;;;;;11.92;100.00;100804.66;5033322;28;20064;-83
2022/11/26 10:16:07;;;;;;;26.50;5.65;;;;;;;12.06;100.00;100806.69;5025449;28;20101;-84
2022/11/26 10:18:57;;;;;;;22.67;5.30;;;;;;;11.96;100.00;100789.63;5016070;28;20056;-84
2022/11/26 10:21:40;;;;;;;26.23;4.82;;;;;;;12.02;100.00;100791.13;5027953;28;20155;-84
2022/11/26 10:24:37;;;;;;;41.28;6.85;;;;;;;11.69;100.00;100774.09;5040053;28;20063;-84
2022/11/26 10:27:13;;;;;;;28.63;5.95;;;;;;;12.00;100.00;100785.94;5031653;28;20053;-84
2022/11/26 10:29:42;;;;;;;28.70;4.70;;;;;;;11.70;100.00;100782.81;5032721;28;20053;-84
2022/11/26 10:32:21;;;;;;;25.80;5.45;;;;;;;11.46;100.00;100775.03;5053007;28;20104;-84
2022/11/26 10:34:51;;;;;;;28.20;5.13;;;;;;;11.52;100.00;100806.25;5031334;28;20045;-83
2022/11/26 10:37:20;;;;;;;23.17;5.05;;;;;;;11.51;100.00;100757.34;5032022;28;20049;-84
2022/11/26 10:39:48;;;;;;;21.55;4.60;;;;;;;11.73;100.00;100782.69;5024899;28;20084;-84
2022/11/26 10:42:21;;;;;;;21.00;3.80;;;;;;;11.59;100.00;100771.00;5042253;28;20045;-83
2022/11/26 10:44:49;;;;;;;26.77;4.82;;;;;;;11.76;100.00;100775.53;5031557;28;20046;-85
2022/11/26 10:47:30;;;;;;;24.40;5.65;;;;;;;11.58;100.00;100782.41;5030654;28;20053;-85
2022/11/26 10:50:03;;;;;;;28.80;4.72;;;;;;;11.69;100.00;100776.72;5029855;28;20053;-85
2022/11/26 10:52:51;;;;;;;23.45;4.18;;;;;;;11.48;100.00;100752.25;5016867;28;20073;-85
2022/11/26 10:55:40;;;;;;;20.58;4.65;;;;;;;11.55;100.00;100760.72;5021703;28;20049;-83
2022/11/26 10:58:20;;;;;;;22.95;4.30;;;;;;;11.65;100.00;100784.75;5030738;28;20502;-84
2022/11/26 11:00:47;;;;;;;25.10;4.57;;;;;;;11.84;100.00;100790.09;5024225;28;20057;-84
2022/11/26 11:03:20;;;;;;;22.38;3.75;;;;;;;11.80;100.00;100794.63;5032142;28;20050;-85
2022/11/26 11:06:18;;;;;;;23.75;4.40;;;;;;;11.81;100.00;100788.47;5020278;28;20136;-84
2022/11/26 11:08:48;;;;;;;28.65;5.55;;;;;;;11.64;100.00;100778.69;5021995;28;20411;-83
2022/11/26 11:11:24;;;;;;;25.88;5.18;;;;;;;11.58;100.00;100781.56;5027711;28;20046;-82
2022/11/26 11:13:52;;;;;;;23.63;4.53;;;;;;;11.76;100.00;100793.91;5029732;28;20045;-84
2022/11/26 11:16:37;;;;;;;25.77;4.97;;;;;;;11.41;100.00;100777.00;5025621;28;20243;-83
2022/11/26 11:19:19;;;;;;;21.52;4.85;;;;;;;11.43;100.00;100772.53;5028937;28;20483;-84
2022/11/26 11:21:46;;;;;;;24.15;5.35;;;;;;;11.56;100.00;100786.88;5017431;28;20096;-82
2022/11/26 11:24:17;;;;;;;18.10;3.88;;;;;;;11.58;100.00;100781.56;5030179;28;20081;-83
2022/11/26 11:26:46;;;;;;;19.40;5.15;;;;;;;11.62;100.00;100782.28;5028809;28;20046;-83
2022/11/26 11:29:32;;;;;;;21.67;4.57;;;;;;;11.47;100.00;100755.75;5017908;28;20632;-82
2022/11/26 11:32:01;;;;;;;25.85;4.22;;;;;;;11.49;100.00;100753.06;5048886;28;20056;-84